Acorn Park, Oregon
Current Conditions -  °F | °C
As of 7:54 AM on Friday 19 Dec 2014 (Local Time) from KEUG Reporting Station
Broken Clouds Broken Clouds  
Wind Chill: 42°   Ceiling: 4400
Heat Index: 44°   Visibility: 10mi
Dew Point: 40°   Wind: 5mph
Humidity: 85%   Direction: 200°SSW
Pressure: 30"   Gusts: NA
Location:  44.0318°N, 123.235°W
Report Text: KEUG 191554Z 20004KT 10SM BKN044 BKN055 BKN110 07/04 A3000 RMK AO2 SLP160 T00670044
Loading
Personal Weather Stations






























Interactive Weather Map New forecast layout! Learn more

10-Day Weather Forecast

Advertisements
Track Severe Weather on mobile